sensor_id;sensor_type;location;lat;lon;timestamp;P1;durP1;ratioP1;P2;durP2;ratioP2
84050;SDS011;74137;50.136;19.040;2024-02-26T00:00:53;20.10;;;9.00;;
84050;SDS011;74137;50.136;19.040;2024-02-26T00:03:45;16.70;;;8.10;;
84050;SDS011;74137;50.136;19.040;2024-02-26T00:08:48;10.90;;;7.10;;
84050;SDS011;74137;50.136;19.040;2024-02-26T00:11:17;11.90;;;5.70;;
84050;SDS011;74137;50.136;19.040;2024-02-26T00:13:47;14.50;;;9.40;;
84050;SDS011;74137;50.136;19.040;2024-02-26T00:16:18;17.60;;;8.80;;
84050;SDS011;74137;50.136;19.040;2024-02-26T00:18:46;22.70;;;12.40;;
84050;SDS011;74137;50.136;19.040;2024-02-26T00:21:20;19.00;;;10.80;;
84050;SDS011;74137;50.136;19.040;2024-02-26T00:23:52;15.40;;;8.20;;
84050;SDS011;74137;50.136;19.040;2024-02-26T00:26:25;30.40;;;15.10;;
84050;SDS011;74137;50.136;19.040;2024-02-26T00:28:58;16.50;;;8.00;;
84050;SDS011;74137;50.136;19.040;2024-02-26T00:31:26;15.70;;;7.80;;
84050;SDS011;74137;50.136;19.040;2024-02-26T00:33:57;21.00;;;9.00;;
84050;SDS011;74137;50.136;19.040;2024-02-26T00:36:27;17.20;;;8.30;;
84050;SDS011;74137;50.136;19.040;2024-02-26T00:38:58;16.80;;;8.20;;
84050;SDS011;74137;50.136;19.040;2024-02-26T00:41:26;14.50;;;8.30;;
84050;SDS011;74137;50.136;19.040;2024-02-26T00:43:55;16.60;;;8.40;;
84050;SDS011;74137;50.136;19.040;2024-02-26T00:46:23;18.30;;;8.90;;
84050;SDS011;74137;50.136;19.040;2024-02-26T00:48:53;17.90;;;9.30;;
84050;SDS011;74137;50.136;19.040;2024-02-26T00:51:22;19.50;;;9.00;;
84050;SDS011;74137;50.136;19.040;2024-02-26T00:53:55;22.10;;;9.70;;
84050;SDS011;74137;50.136;19.040;2024-02-26T00:56:26;21.40;;;9.80;;
84050;SDS011;74137;50.136;19.040;2024-02-26T00:58:58;20.30;;;10.90;;
84050;SDS011;74137;50.136;19.040;2024-02-26T01:01:26;18.00;;;8.70;;
84050;SDS011;74137;50.136;19.040;2024-02-26T01:03:57;12.80;;;6.60;;
84050;SDS011;74137;50.136;19.040;2024-02-26T01:06:25;16.80;;;8.00;;
84050;SDS011;74137;50.136;19.040;2024-02-26T01:08:54;20.80;;;11.90;;
84050;SDS011;74137;50.136;19.040;2024-02-26T01:11:24;22.90;;;10.80;;
84050;SDS011;74137;50.136;19.040;2024-02-26T01:13:53;24.30;;;14.20;;
84050;SDS011;74137;50.136;19.040;2024-02-26T01:16:24;22.20;;;12.60;;
84050;SDS011;74137;50.136;19.040;2024-02-26T01:18:53;23.30;;;12.60;;
84050;SDS011;74137;50.136;19.040;2024-02-26T01:21:21;23.40;;;11.40;;
84050;SDS011;74137;50.136;19.040;2024-02-26T01:23:52;24.20;;;12.40;;
84050;SDS011;74137;50.136;19.040;2024-02-26T01:26:20;28.20;;;14.30;;
84050;SDS011;74137;50.136;19.040;2024-02-26T01:28:53;27.00;;;15.30;;
84050;SDS011;74137;50.136;19.040;2024-02-26T01:33:53;22.80;;;12.30;;
84050;SDS011;74137;50.136;19.040;2024-02-26T01:36:23;27.50;;;14.90;;
84050;SDS011;74137;50.136;19.040;2024-02-26T01:38:51;28.10;;;14.60;;
84050;SDS011;74137;50.136;19.040;2024-02-26T01:41:20;28.30;;;14.80;;
84050;SDS011;74137;50.136;19.040;2024-02-26T01:43:48;30.50;;;15.80;;
84050;SDS011;74137;50.136;19.040;2024-02-26T01:46:16;30.90;;;15.70;;
84050;SDS011;74137;50.136;19.040;2024-02-26T01:48:48;26.80;;;14.70;;
84050;SDS011;74137;50.136;19.040;2024-02-26T01:51:18;29.00;;;14.50;;
84050;SDS011;74137;50.136;19.040;2024-02-26T01:53:46;23.70;;;13.60;;
84050;SDS011;74137;50.136;19.040;2024-02-26T01:56:15;28.00;;;13.70;;
84050;SDS011;74137;50.136;19.040;2024-02-26T01:58:48;25.80;;;14.20;;
84050;SDS011;74137;50.136;19.040;2024-02-26T02:01:19;23.90;;;12.20;;
84050;SDS011;74137;50.136;19.040;2024-02-26T02:03:50;24.10;;;11.60;;
84050;SDS011;74137;50.136;19.040;2024-02-26T02:06:21;24.60;;;12.80;;
84050;SDS011;74137;50.136;19.040;2024-02-26T02:08:50;31.10;;;13.70;;
84050;SDS011;74137;50.136;19.040;2024-02-26T02:11:21;25.10;;;15.00;;
84050;SDS011;74137;50.136;19.040;2024-02-26T02:13:49;27.70;;;16.40;;
84050;SDS011;74137;50.136;19.040;2024-02-26T02:16:18;24.10;;;14.30;;
84050;SDS011;74137;50.136;19.040;2024-02-26T02:18:46;25.00;;;12.20;;
84050;SDS011;74137;50.136;19.040;2024-02-26T02:21:14;24.60;;;14.20;;
84050;SDS011;74137;50.136;19.040;2024-02-26T02:23:47;26.10;;;12.50;;
84050;SDS011;74137;50.136;19.040;2024-02-26T02:26:17;24.20;;;13.00;;
84050;SDS011;74137;50.136;19.040;2024-02-26T02:28:49;25.20;;;13.60;;
84050;SDS011;74137;50.136;19.040;2024-02-26T02:31:22;23.60;;;13.50;;
84050;SDS011;74137;50.136;19.040;2024-02-26T02:33:50;24.00;;;11.90;;
84050;SDS011;74137;50.136;19.040;2024-02-26T02:36:21;25.70;;;13.40;;
84050;SDS011;74137;50.136;19.040;2024-02-26T02:38:52;32.10;;;15.80;;
84050;SDS011;74137;50.136;19.040;2024-02-26T02:41:25;30.10;;;16.70;;
84050;SDS011;74137;50.136;19.040;2024-02-26T02:43:58;30.40;;;17.10;;
84050;SDS011;74137;50.136;19.040;2024-02-26T02:46:26;32.30;;;16.40;;
84050;SDS011;74137;50.136;19.040;2024-02-26T02:48:57;29.50;;;15.20;;
84050;SDS011;74137;50.136;19.040;2024-02-26T02:51:25;29.40;;;14.00;;
84050;SDS011;74137;50.136;19.040;2024-02-26T02:53:53;29.70;;;15.90;;
84050;SDS011;74137;50.136;19.040;2024-02-26T02:56:22;29.60;;;14.10;;
84050;SDS011;74137;50.136;19.040;2024-02-26T02:58:50;31.60;;;16.00;;
84050;SDS011;74137;50.136;19.040;2024-02-26T03:01:18;25.90;;;13.00;;
84050;SDS011;74137;50.136;19.040;2024-02-26T03:03:46;31.10;;;15.50;;
84050;SDS011;74137;50.136;19.040;2024-02-26T03:06:19;25.00;;;13.60;;
84050;SDS011;74137;50.136;19.040;2024-02-26T03:08:49;26.00;;;14.30;;
84050;SDS011;74137;50.136;19.040;2024-02-26T03:11:17;29.90;;;14.30;;
84050;SDS011;74137;50.136;19.040;2024-02-26T03:13:45;32.30;;;14.70;;
84050;SDS011;74137;50.136;19.040;2024-02-26T03:16:18;29.20;;;16.10;;
84050;SDS011;74137;50.136;19.040;2024-02-26T03:18:46;34.80;;;17.70;;
84050;SDS011;74137;50.136;19.040;2024-02-26T03:21:17;32.10;;;17.40;;
84050;SDS011;74137;50.136;19.040;2024-02-26T03:23:51;32.30;;;17.30;;
84050;SDS011;74137;50.136;19.040;2024-02-26T03:26:23;32.20;;;16.90;;
84050;SDS011;74137;50.136;19.040;2024-02-26T03:28:51;35.70;;;18.90;;
84050;SDS011;74137;50.136;19.040;2024-02-26T03:31:24;37.80;;;22.30;;
84050;SDS011;74137;50.136;19.040;2024-02-26T03:33:52;39.40;;;22.30;;
84050;SDS011;74137;50.136;19.040;2024-02-26T03:36:25;40.20;;;22.60;;
84050;SDS011;74137;50.136;19.040;2024-02-26T03:38:56;32.60;;;18.20;;
84050;SDS011;74137;50.136;19.040;2024-02-26T03:41:26;23.20;;;13.20;;
84050;SDS011;74137;50.136;19.040;2024-02-26T03:43:57;34.40;;;20.00;;
84050;SDS011;74137;50.136;19.040;2024-02-26T03:46:28;41.80;;;22.40;;
84050;SDS011;74137;50.136;19.040;2024-02-26T03:48:57;47.10;;;28.30;;
84050;SDS011;74137;50.136;19.040;2024-02-26T03:51:28;43.30;;;25.90;;
84050;SDS011;74137;50.136;19.040;2024-02-26T03:54:01;38.40;;;22.60;;
84050;SDS011;74137;50.136;19.040;2024-02-26T03:56:35;43.40;;;22.40;;
84050;SDS011;74137;50.136;19.040;2024-02-26T03:59:04;37.30;;;20.90;;
84050;SDS011;74137;50.136;19.040;2024-02-26T04:01:32;36.70;;;19.90;;
84050;SDS011;74137;50.136;19.040;2024-02-26T04:04:05;38.10;;;22.90;;
84050;SDS011;74137;50.136;19.040;2024-02-26T04:06:34;40.50;;;22.30;;
84050;SDS011;74137;50.136;19.040;2024-02-26T04:09:02;34.00;;;19.90;;
84050;SDS011;74137;50.136;19.040;2024-02-26T04:11:31;34.30;;;20.80;;
84050;SDS011;74137;50.136;19.040;2024-02-26T04:14:02;33.20;;;18.80;;
84050;SDS011;74137;50.136;19.040;2024-02-26T04:16:31;31.40;;;18.40;;
84050;SDS011;74137;50.136;19.040;2024-02-26T04:19:01;31.80;;;16.80;;
84050;SDS011;74137;50.136;19.040;2024-02-26T04:21:30;33.90;;;20.20;;
84050;SDS011;74137;50.136;19.040;2024-02-26T04:23:58;37.40;;;21.90;;
84050;SDS011;74137;50.136;19.040;2024-02-26T04:26:32;38.10;;;20.10;;
84050;SDS011;74137;50.136;19.040;2024-02-26T04:29:00;35.90;;;19.90;;
84050;SDS011;74137;50.136;19.040;2024-02-26T04:31:31;32.60;;;18.20;;
84050;SDS011;74137;50.136;19.040;2024-02-26T04:34:01;35.60;;;18.70;;
84050;SDS011;74137;50.136;19.040;2024-02-26T04:36:34;37.30;;;18.10;;
84050;SDS011;74137;50.136;19.040;2024-02-26T04:39:07;27.10;;;13.40;;
84050;SDS011;74137;50.136;19.040;2024-02-26T04:41:35;34.00;;;17.40;;
84050;SDS011;74137;50.136;19.040;2024-02-26T04:44:05;33.80;;;17.50;;
84050;SDS011;74137;50.136;19.040;2024-02-26T04:46:36;33.00;;;17.90;;
84050;SDS011;74137;50.136;19.040;2024-02-26T04:49:04;26.10;;;14.10;;
84050;SDS011;74137;50.136;19.040;2024-02-26T04:51:35;28.00;;;14.70;;
84050;SDS011;74137;50.136;19.040;2024-02-26T04:54:03;31.50;;;17.60;;
84050;SDS011;74137;50.136;19.040;2024-02-26T04:56:31;30.40;;;17.50;;
84050;SDS011;74137;50.136;19.040;2024-02-26T04:59:06;34.70;;;17.90;;
84050;SDS011;74137;50.136;19.040;2024-02-26T05:01:34;39.50;;;19.50;;
84050;SDS011;74137;50.136;19.040;2024-02-26T05:04:04;34.50;;;19.20;;
84050;SDS011;74137;50.136;19.040;2024-02-26T05:06:36;40.10;;;23.20;;
84050;SDS011;74137;50.136;19.040;2024-02-26T05:09:04;37.60;;;23.00;;
84050;SDS011;74137;50.136;19.040;2024-02-26T05:11:35;40.80;;;24.30;;
84050;SDS011;74137;50.136;19.040;2024-02-26T05:14:12;40.40;;;25.50;;
84050;SDS011;74137;50.136;19.040;2024-02-26T05:16:40;41.70;;;25.70;;
84050;SDS011;74137;50.136;19.040;2024-02-26T05:19:08;39.10;;;24.80;;
84050;SDS011;74137;50.136;19.040;2024-02-26T05:21:37;44.50;;;25.80;;
84050;SDS011;74137;50.136;19.040;2024-02-26T05:24:08;40.70;;;26.60;;
84050;SDS011;74137;50.136;19.040;2024-02-26T05:26:36;40.20;;;23.60;;
84050;SDS011;74137;50.136;19.040;2024-02-26T05:29:04;42.40;;;27.20;;
84050;SDS011;74137;50.136;19.040;2024-02-26T05:31:32;40.90;;;27.10;;
84050;SDS011;74137;50.136;19.040;2024-02-26T05:34:05;44.30;;;26.60;;
84050;SDS011;74137;50.136;19.040;2024-02-26T05:36:38;41.80;;;25.20;;
84050;SDS011;74137;50.136;19.040;2024-02-26T05:39:09;32.60;;;21.00;;
84050;SDS011;74137;50.136;19.040;2024-02-26T05:41:45;40.40;;;24.30;;
84050;SDS011;74137;50.136;19.040;2024-02-26T05:44:16;38.20;;;22.80;;
84050;SDS011;74137;50.136;19.040;2024-02-26T05:46:46;41.70;;;23.00;;
84050;SDS011;74137;50.136;19.040;2024-02-26T05:49:17;33.10;;;19.30;;
84050;SDS011;74137;50.136;19.040;2024-02-26T05:51:45;37.80;;;20.60;;
84050;SDS011;74137;50.136;19.040;2024-02-26T05:54:15;37.20;;;20.90;;
84050;SDS011;74137;50.136;19.040;2024-02-26T05:56:46;37.90;;;22.50;;
84050;SDS011;74137;50.136;19.040;2024-02-26T05:59:14;37.80;;;22.20;;
84050;SDS011;74137;50.136;19.040;2024-02-26T06:01:43;39.20;;;23.00;;
84050;SDS011;74137;50.136;19.040;2024-02-26T06:04:15;39.70;;;22.00;;
84050;SDS011;74137;50.136;19.040;2024-02-26T06:06:49;32.30;;;20.80;;
84050;SDS011;74137;50.136;19.040;2024-02-26T06:09:22;35.20;;;20.60;;
84050;SDS011;74137;50.136;19.040;2024-02-26T06:11:51;33.60;;;19.50;;
84050;SDS011;74137;50.136;19.040;2024-02-26T06:14:22;33.60;;;20.40;;
84050;SDS011;74137;50.136;19.040;2024-02-26T06:16:51;41.00;;;21.60;;
84050;SDS011;74137;50.136;19.040;2024-02-26T06:19:21;35.00;;;20.20;;
84050;SDS011;74137;50.136;19.040;2024-02-26T06:21:52;37.00;;;21.00;;
84050;SDS011;74137;50.136;19.040;2024-02-26T06:24:25;36.60;;;20.20;;
84050;SDS011;74137;50.136;19.040;2024-02-26T06:26:54;35.00;;;20.30;;
84050;SDS011;74137;50.136;19.040;2024-02-26T06:29:25;35.10;;;21.20;;
84050;SDS011;74137;50.136;19.040;2024-02-26T06:31:53;37.90;;;20.90;;
84050;SDS011;74137;50.136;19.040;2024-02-26T06:34:21;40.40;;;21.50;;
84050;SDS011;74137;50.136;19.040;2024-02-26T06:36:51;39.30;;;22.70;;
84050;SDS011;74137;50.136;19.040;2024-02-26T06:39:24;35.50;;;20.00;;
84050;SDS011;74137;50.136;19.040;2024-02-26T06:41:54;33.50;;;20.50;;
84050;SDS011;74137;50.136;19.040;2024-02-26T06:44:30;35.00;;;19.60;;
84050;SDS011;74137;50.136;19.040;2024-02-26T06:47:04;36.80;;;22.00;;
84050;SDS011;74137;50.136;19.040;2024-02-26T06:49:37;36.70;;;22.30;;
84050;SDS011;74137;50.136;19.040;2024-02-26T06:52:08;35.70;;;22.30;;
84050;SDS011;74137;50.136;19.040;2024-02-26T06:55:05;38.30;;;24.70;;
84050;SDS011;74137;50.136;19.040;2024-02-26T06:57:36;39.70;;;24.50;;
84050;SDS011;74137;50.136;19.040;2024-02-26T07:00:07;41.30;;;24.90;;
84050;SDS011;74137;50.136;19.040;2024-02-26T07:02:38;38.70;;;23.00;;
84050;SDS011;74137;50.136;19.040;2024-02-26T07:05:11;35.20;;;22.20;;
84050;SDS011;74137;50.136;19.040;2024-02-26T07:07:40;35.50;;;23.20;;
84050;SDS011;74137;50.136;19.040;2024-02-26T07:10:08;42.10;;;24.80;;
84050;SDS011;74137;50.136;19.040;2024-02-26T07:12:45;41.60;;;25.30;;
84050;SDS011;74137;50.136;19.040;2024-02-26T07:15:16;34.90;;;24.70;;
84050;SDS011;74137;50.136;19.040;2024-02-26T07:17:47;38.60;;;24.10;;
84050;SDS011;74137;50.136;19.040;2024-02-26T07:20:20;38.00;;;26.70;;
84050;SDS011;74137;50.136;19.040;2024-02-26T07:22:49;41.00;;;26.80;;
84050;SDS011;74137;50.136;19.040;2024-02-26T07:25:19;38.00;;;24.20;;
84050;SDS011;74137;50.136;19.040;2024-02-26T07:27:48;40.70;;;26.40;;
84050;SDS011;74137;50.136;19.040;2024-02-26T07:30:19;41.40;;;26.90;;
84050;SDS011;74137;50.136;19.040;2024-02-26T07:32:52;46.00;;;28.50;;
84050;SDS011;74137;50.136;19.040;2024-02-26T07:35:23;44.10;;;28.90;;
84050;SDS011;74137;50.136;19.040;2024-02-26T07:37:59;41.30;;;28.80;;
84050;SDS011;74137;50.136;19.040;2024-02-26T07:40:27;44.80;;;34.40;;
84050;SDS011;74137;50.136;19.040;2024-02-26T07:42:58;62.80;;;50.10;;
84050;SDS011;74137;50.136;19.040;2024-02-26T07:45:28;54.00;;;35.50;;
84050;SDS011;74137;50.136;19.040;2024-02-26T07:47:59;54.10;;;34.30;;
84050;SDS011;74137;50.136;19.040;2024-02-26T07:50:27;54.40;;;35.30;;
84050;SDS011;74137;50.136;19.040;2024-02-26T07:52:57;53.60;;;35.20;;
84050;SDS011;74137;50.136;19.040;2024-02-26T07:55:30;44.70;;;29.80;;
84050;SDS011;74137;50.136;19.040;2024-02-26T07:58:03;35.20;;;25.60;;
84050;SDS011;74137;50.136;19.040;2024-02-26T08:00:36;35.30;;;22.80;;
84050;SDS011;74137;50.136;19.040;2024-02-26T08:03:04;33.70;;;22.20;;
84050;SDS011;74137;50.136;19.040;2024-02-26T08:05:33;35.50;;;23.80;;
84050;SDS011;74137;50.136;19.040;2024-02-26T08:08:03;32.50;;;21.00;;
84050;SDS011;74137;50.136;19.040;2024-02-26T08:10:33;28.40;;;19.20;;
84050;SDS011;74137;50.136;19.040;2024-02-26T08:13:05;28.70;;;19.10;;
84050;SDS011;74137;50.136;19.040;2024-02-26T08:15:38;26.00;;;17.70;;
84050;SDS011;74137;50.136;19.040;2024-02-26T08:18:12;25.20;;;16.80;;
84050;SDS011;74137;50.136;19.040;2024-02-26T08:20:45;29.00;;;16.90;;
84050;SDS011;74137;50.136;19.040;2024-02-26T08:23:14;21.20;;;14.50;;
84050;SDS011;74137;50.136;19.040;2024-02-26T08:25:44;19.10;;;12.90;;
84050;SDS011;74137;50.136;19.040;2024-02-26T08:28:16;16.10;;;9.30;;
84050;SDS011;74137;50.136;19.040;2024-02-26T08:30:47;16.90;;;10.70;;
84050;SDS011;74137;50.136;19.040;2024-02-26T08:33:18;15.90;;;9.80;;
84050;SDS011;74137;50.136;19.040;2024-02-26T08:35:49;16.30;;;9.80;;
84050;SDS011;74137;50.136;19.040;2024-02-26T08:38:17;13.90;;;9.20;;
84050;SDS011;74137;50.136;19.040;2024-02-26T08:40:45;16.40;;;9.10;;
84050;SDS011;74137;50.136;19.040;2024-02-26T08:43:16;15.20;;;9.80;;
84050;SDS011;74137;50.136;19.040;2024-02-26T08:45:44;12.80;;;8.50;;
84050;SDS011;74137;50.136;19.040;2024-02-26T08:48:12;14.40;;;9.40;;
84050;SDS011;74137;50.136;19.040;2024-02-26T08:50:43;13.70;;;9.50;;
84050;SDS011;74137;50.136;19.040;2024-02-26T08:53:14;15.90;;;10.10;;
84050;SDS011;74137;50.136;19.040;2024-02-26T08:55:54;14.90;;;9.30;;
84050;SDS011;74137;50.136;19.040;2024-02-26T08:58:22;12.30;;;7.70;;
84050;SDS011;74137;50.136;19.040;2024-02-26T09:00:53;12.00;;;6.90;;
84050;SDS011;74137;50.136;19.040;2024-02-26T09:03:26;15.10;;;7.00;;
84050;SDS011;74137;50.136;19.040;2024-02-26T09:05:59;10.80;;;6.10;;
84050;SDS011;74137;50.136;19.040;2024-02-26T09:08:28;11.90;;;6.70;;
84050;SDS011;74137;50.136;19.040;2024-02-26T09:11:05;11.40;;;5.90;;
84050;SDS011;74137;50.136;19.040;2024-02-26T09:13:38;11.50;;;5.30;;
84050;SDS011;74137;50.136;19.040;2024-02-26T09:16:11;9.50;;;4.70;;
84050;SDS011;74137;50.136;19.040;2024-02-26T09:18:39;9.80;;;5.50;;
84050;SDS011;74137;50.136;19.040;2024-02-26T09:21:08;10.40;;;5.30;;
84050;SDS011;74137;50.136;19.040;2024-02-26T09:23:38;9.90;;;6.20;;
84050;SDS011;74137;50.136;19.040;2024-02-26T09:26:11;10.90;;;6.20;;
84050;SDS011;74137;50.136;19.040;2024-02-26T09:28:42;12.60;;;7.20;;
84050;SDS011;74137;50.136;19.040;2024-02-26T09:31:14;12.30;;;7.10;;
84050;SDS011;74137;50.136;19.040;2024-02-26T09:33:46;17.30;;;8.70;;
84050;SDS011;74137;50.136;19.040;2024-02-26T09:36:15;12.60;;;7.90;;
84050;SDS011;74137;50.136;19.040;2024-02-26T09:38:43;12.50;;;7.40;;
84050;SDS011;74137;50.136;19.040;2024-02-26T09:41:28;10.00;;;6.30;;
84050;SDS011;74137;50.136;19.040;2024-02-26T09:43:59;12.30;;;6.80;;
84050;SDS011;74137;50.136;19.040;2024-02-26T09:46:32;17.40;;;9.20;;
84050;SDS011;74137;50.136;19.040;2024-02-26T09:49:06;15.20;;;7.80;;
84050;SDS011;74137;50.136;19.040;2024-02-26T09:51:36;9.80;;;6.00;;
84050;SDS011;74137;50.136;19.040;2024-02-26T09:54:07;9.10;;;5.20;;
84050;SDS011;74137;50.136;19.040;2024-02-26T09:56:38;10.70;;;5.00;;
84050;SDS011;74137;50.136;19.040;2024-02-26T09:59:26;9.10;;;4.80;;
84050;SDS011;74137;50.136;19.040;2024-02-26T10:01:55;10.10;;;5.40;;
84050;SDS011;74137;50.136;19.040;2024-02-26T10:04:29;11.00;;;6.20;;
84050;SDS011;74137;50.136;19.040;2024-02-26T10:06:59;10.30;;;5.70;;
84050;SDS011;74137;50.136;19.040;2024-02-26T10:09:29;10.50;;;6.30;;
84050;SDS011;74137;50.136;19.040;2024-02-26T10:12:01;9.70;;;5.10;;
84050;SDS011;74137;50.136;19.040;2024-02-26T10:14:32;8.70;;;5.00;;
84050;SDS011;74137;50.136;19.040;2024-02-26T10:17:01;8.20;;;3.80;;
84050;SDS011;74137;50.136;19.040;2024-02-26T10:19:34;8.50;;;4.30;;
84050;SDS011;74137;50.136;19.040;2024-02-26T10:22:05;8.60;;;4.70;;
84050;SDS011;74137;50.136;19.040;2024-02-26T10:24:36;11.30;;;5.20;;
84050;SDS011;74137;50.136;19.040;2024-02-26T10:27:05;10.50;;;5.20;;
84050;SDS011;74137;50.136;19.040;2024-02-26T10:29:36;8.90;;;4.80;;
84050;SDS011;74137;50.136;19.040;2024-02-26T10:32:04;9.40;;;4.90;;
84050;SDS011;74137;50.136;19.040;2024-02-26T10:34:33;7.90;;;4.30;;
84050;SDS011;74137;50.136;19.040;2024-02-26T10:37:05;9.60;;;5.60;;
84050;SDS011;74137;50.136;19.040;2024-02-26T10:39:36;8.50;;;4.90;;
84050;SDS011;74137;50.136;19.040;2024-02-26T10:42:06;10.30;;;5.10;;
84050;SDS011;74137;50.136;19.040;2024-02-26T10:44:40;8.50;;;4.70;;
84050;SDS011;74137;50.136;19.040;2024-02-26T10:47:11;10.50;;;5.50;;
84050;SDS011;74137;50.136;19.040;2024-02-26T10:49:44;8.40;;;4.40;;
84050;SDS011;74137;50.136;19.040;2024-02-26T10:52:14;8.70;;;4.90;;
84050;SDS011;74137;50.136;19.040;2024-02-26T10:54:43;8.90;;;4.80;;
84050;SDS011;74137;50.136;19.040;2024-02-26T10:57:18;11.80;;;5.00;;
84050;SDS011;74137;50.136;19.040;2024-02-26T10:59:52;9.50;;;5.20;;
84050;SDS011;74137;50.136;19.040;2024-02-26T11:02:22;7.80;;;4.50;;
84050;SDS011;74137;50.136;19.040;2024-02-26T11:04:50;8.60;;;4.00;;
84050;SDS011;74137;50.136;19.040;2024-02-26T11:07:22;7.20;;;3.90;;
84050;SDS011;74137;50.136;19.040;2024-02-26T11:09:53;7.30;;;3.70;;
84050;SDS011;74137;50.136;19.040;2024-02-26T11:12:26;7.50;;;3.90;;
84050;SDS011;74137;50.136;19.040;2024-02-26T11:14:57;6.30;;;3.40;;
84050;SDS011;74137;50.136;19.040;2024-02-26T11:17:29;9.10;;;3.40;;
84050;SDS011;74137;50.136;19.040;2024-02-26T11:20:04;5.90;;;3.20;;
84050;SDS011;74137;50.136;19.040;2024-02-26T11:22:37;6.30;;;3.00;;
84050;SDS011;74137;50.136;19.040;2024-02-26T11:25:08;8.70;;;3.70;;
84050;SDS011;74137;50.136;19.040;2024-02-26T11:27:40;5.20;;;2.70;;
84050;SDS011;74137;50.136;19.040;2024-02-26T11:30:13;5.80;;;3.00;;
84050;SDS011;74137;50.136;19.040;2024-02-26T11:32:46;5.80;;;2.80;;
84050;SDS011;74137;50.136;19.040;2024-02-26T11:35:16;10.00;;;3.60;;
84050;SDS011;74137;50.136;19.040;2024-02-26T11:37:55;8.00;;;3.90;;
84050;SDS011;74137;50.136;19.040;2024-02-26T11:40:29;8.80;;;4.30;;
84050;SDS011;74137;50.136;19.040;2024-02-26T11:43:02;7.20;;;4.10;;
84050;SDS011;74137;50.136;19.040;2024-02-26T11:48:16;8.50;;;3.70;;
84050;SDS011;74137;50.136;19.040;2024-02-26T11:50:51;7.70;;;4.10;;
84050;SDS011;74137;50.136;19.040;2024-02-26T11:53:28;8.10;;;4.00;;
84050;SDS011;74137;50.136;19.040;2024-02-26T11:58:53;6.60;;;4.50;;
84050;SDS011;74137;50.136;19.040;2024-02-26T12:06:44;9.20;;;4.50;;
84050;SDS011;74137;50.136;19.040;2024-02-26T12:09:39;10.20;;;4.80;;
84050;SDS011;74137;50.136;19.040;2024-02-26T12:13:15;9.40;;;4.50;;
84050;SDS011;74137;50.136;19.040;2024-02-26T12:17:05;9.60;;;4.60;;
84050;SDS011;74137;50.136;19.040;2024-02-26T12:32:44;12.90;;;7.00;;
84050;SDS011;74137;50.136;19.040;2024-02-26T12:35:18;11.70;;;7.00;;
84050;SDS011;74137;50.136;19.040;2024-02-26T12:37:49;11.20;;;6.70;;
84050;SDS011;74137;50.136;19.040;2024-02-26T12:40:19;16.80;;;7.70;;
84050;SDS011;74137;50.136;19.040;2024-02-26T12:42:47;10.00;;;6.20;;
84050;SDS011;74137;50.136;19.040;2024-02-26T12:46:37;9.60;;;6.30;;
84050;SDS011;74137;50.136;19.040;2024-02-26T12:49:07;13.90;;;6.80;;
84050;SDS011;74137;50.136;19.040;2024-02-26T12:51:36;11.00;;;7.10;;
84050;SDS011;74137;50.136;19.040;2024-02-26T12:54:08;9.80;;;7.10;;
84050;SDS011;74137;50.136;19.040;2024-02-26T12:56:37;11.20;;;6.90;;
84050;SDS011;74137;50.136;19.040;2024-02-26T12:59:08;12.50;;;7.10;;
84050;SDS011;74137;50.136;19.040;2024-02-26T13:01:36;10.10;;;6.60;;
84050;SDS011;74137;50.136;19.040;2024-02-26T13:04:05;9.90;;;6.10;;
84050;SDS011;74137;50.136;19.040;2024-02-26T13:06:35;12.70;;;7.10;;
84050;SDS011;74137;50.136;19.040;2024-02-26T13:11:39;11.20;;;8.10;;
84050;SDS011;74137;50.136;19.040;2024-02-26T13:14:08;16.70;;;7.90;;
84050;SDS011;74137;50.136;19.040;2024-02-26T13:16:58;10.10;;;5.70;;
84050;SDS011;74137;50.136;19.040;2024-02-26T13:19:31;10.60;;;6.30;;
84050;SDS011;74137;50.136;19.040;2024-02-26T13:22:04;10.30;;;5.70;;
84050;SDS011;74137;50.136;19.040;2024-02-26T13:24:35;9.00;;;5.10;;
84050;SDS011;74137;50.136;19.040;2024-02-26T13:27:07;8.60;;;4.30;;
84050;SDS011;74137;50.136;19.040;2024-02-26T13:29:37;8.20;;;5.00;;
84050;SDS011;74137;50.136;19.040;2024-02-26T13:32:06;10.60;;;4.90;;
84050;SDS011;74137;50.136;19.040;2024-02-26T13:34:35;10.40;;;4.90;;
84050;SDS011;74137;50.136;19.040;2024-02-26T13:37:05;9.20;;;5.10;;
84050;SDS011;74137;50.136;19.040;2024-02-26T13:39:34;8.10;;;4.70;;
84050;SDS011;74137;50.136;19.040;2024-02-26T13:42:07;8.20;;;4.40;;
84050;SDS011;74137;50.136;19.040;2024-02-26T13:44:37;9.50;;;5.40;;
84050;SDS011;74137;50.136;19.040;2024-02-26T13:47:08;8.20;;;4.60;;
84050;SDS011;74137;50.136;19.040;2024-02-26T13:49:37;9.20;;;5.50;;
84050;SDS011;74137;50.136;19.040;2024-02-26T13:52:05;11.30;;;5.40;;
84050;SDS011;74137;50.136;19.040;2024-02-26T13:54:36;9.80;;;5.90;;
84050;SDS011;74137;50.136;19.040;2024-02-26T13:57:09;10.80;;;6.50;;
84050;SDS011;74137;50.136;19.040;2024-02-26T13:59:37;12.20;;;6.60;;
84050;SDS011;74137;50.136;19.040;2024-02-26T14:02:10;14.40;;;8.00;;
84050;SDS011;74137;50.136;19.040;2024-02-26T14:04:39;13.00;;;6.70;;
84050;SDS011;74137;50.136;19.040;2024-02-26T14:07:09;11.00;;;6.90;;
84050;SDS011;74137;50.136;19.040;2024-02-26T14:09:39;13.60;;;7.50;;
84050;SDS011;74137;50.136;19.040;2024-02-26T14:12:16;12.30;;;7.50;;
84050;SDS011;74137;50.136;19.040;2024-02-26T14:15:02;18.50;;;8.10;;
84050;SDS011;74137;50.136;19.040;2024-02-26T14:17:33;15.00;;;7.10;;
84050;SDS011;74137;50.136;19.040;2024-02-26T14:20:02;17.30;;;8.20;;
84050;SDS011;74137;50.136;19.040;2024-02-26T14:22:31;16.50;;;8.40;;
84050;SDS011;74137;50.136;19.040;2024-02-26T14:25:11;15.80;;;9.10;;
84050;SDS011;74137;50.136;19.040;2024-02-26T14:39:07;17.60;;;10.40;;
84050;SDS011;74137;50.136;19.040;2024-02-26T14:41:35;19.60;;;12.10;;
84050;SDS011;74137;50.136;19.040;2024-02-26T14:44:04;18.30;;;11.10;;
84050;SDS011;74137;50.136;19.040;2024-02-26T14:46:47;17.70;;;10.70;;
84050;SDS011;74137;50.136;19.040;2024-02-26T14:49:27;15.30;;;9.90;;
84050;SDS011;74137;50.136;19.040;2024-02-26T14:51:57;14.50;;;9.20;;
84050;SDS011;74137;50.136;19.040;2024-02-26T14:54:31;16.40;;;9.40;;
84050;SDS011;74137;50.136;19.040;2024-02-26T14:57:10;21.00;;;9.70;;
84050;SDS011;74137;50.136;19.040;2024-02-26T14:59:49;14.70;;;8.80;;
84050;SDS011;74137;50.136;19.040;2024-02-26T15:02:22;19.30;;;10.60;;
84050;SDS011;74137;50.136;19.040;2024-02-26T15:04:52;18.80;;;10.60;;
84050;SDS011;74137;50.136;19.040;2024-02-26T15:07:46;21.70;;;11.50;;
84050;SDS011;74137;50.136;19.040;2024-02-26T15:10:17;26.10;;;13.10;;
84050;SDS011;74137;50.136;19.040;2024-02-26T15:15:16;32.30;;;15.60;;
84050;SDS011;74137;50.136;19.040;2024-02-26T15:17:47;38.50;;;18.50;;
84050;SDS011;74137;50.136;19.040;2024-02-26T15:20:17;38.60;;;18.70;;
84050;SDS011;74137;50.136;19.040;2024-02-26T15:25:15;46.10;;;24.60;;
84050;SDS011;74137;50.136;19.040;2024-02-26T15:27:44;37.50;;;20.00;;
84050;SDS011;74137;50.136;19.040;2024-02-26T15:30:13;35.10;;;18.00;;